Time;durP1;ratioP1;P1;durP2;ratioP2;P2;SDS_P1;SDS_P2;PMS_P1;PMS_P2;Temp;Humidity;BMP_temperature;BMP_pressure;BME280_temperature;BME280_humidity;BME280_pressure;Samples;Min_cycle;Max_cycle;Signal;HPM_P1;HPM_P2
2022/08/29 00:01:57;;;;;;;5.72;5.22;;;;;;;;;;10138316;28;20495;-62
2022/08/29 00:06:51;;;;;;;6.07;5.47;;;;;;;;;;10146580;28;20152;-63
2022/08/29 00:11:44;;;;;;;12.38;5.63;;;;;;;;;;10142691;28;20449;-63
2022/08/29 00:16:38;;;;;;;6.97;6.30;;;;;;;;;;10139639;28;20127;-62
2022/08/29 00:21:32;;;;;;;5.70;5.13;;;;;;;;;;10141322;28;20507;-62
2022/08/29 00:26:26;;;;;;;4.88;4.20;;;;;;;;;;10128313;28;20139;-63
2022/08/29 00:31:22;;;;;;;9.02;4.00;;;;;;;;;;10121952;28;20045;-62
2022/08/29 00:36:17;;;;;;;4.13;3.70;;;;;;;;;;10143691;28;20055;-63
2022/08/29 00:41:14;;;;;;;11.07;4.70;;;;;;;;;;10144220;28;20045;-62
2022/08/29 00:46:41;;;;;;;5.10;4.60;;;;;;;;;;10133150;28;20495;-62
2022/08/29 00:51:36;;;;;;;5.78;5.18;;;;;;;;;;10145558;28;20045;-63
2022/08/29 00:56:30;;;;;;;8.65;5.70;;;;;;;;;;10135359;28;20062;-63
2022/08/29 01:01:24;;;;;;;7.75;7.05;;;;;;;;;;10130356;28;20048;-63
2022/08/29 01:06:20;;;;;;;6.95;6.25;;;;;;;;;;10141029;28;20049;-62
2022/08/29 01:16:28;;;;;;;5.75;5.25;;;;;;;;;;10138167;28;20040;-62
2022/08/29 01:21:44;;;;;;;5.10;4.60;;;;;;;;;;10145817;28;20139;-62
2022/08/29 01:26:37;;;;;;;6.53;5.28;;;;;;;;;;10130244;28;20053;-62
2022/08/29 01:31:45;;;;;;;5.47;4.90;;;;;;;;;;10127183;28;20068;-62
2022/08/29 01:36:57;;;;;;;8.67;5.17;;;;;;;;;;10138666;28;20507;-62
2022/08/29 01:41:51;;;;;;;4.80;4.40;;;;;;;;;;10151842;28;20052;-62
2022/08/29 01:46:47;;;;;;;5.47;4.85;;;;;;;;;;10149403;28;20072;-62
2022/08/29 01:51:40;;;;;;;5.10;3.83;;;;;;;;;;10146107;28;20415;-62
2022/08/29 01:56:36;;;;;;;4.03;3.72;;;;;;;;;;10151815;28;20106;-62
2022/08/29 02:01:33;;;;;;;4.03;3.35;;;;;;;;;;10142416;28;20056;-62
2022/08/29 02:06:27;;;;;;;6.78;3.50;;;;;;;;;;10142486;28;20466;-62
2022/08/29 02:11:22;;;;;;;24.50;5.38;;;;;;;;;;10148152;28;20063;-63
2022/08/29 02:16:17;;;;;;;5.97;4.40;;;;;;;;;;10144361;28;20044;-62
2022/08/29 02:21:12;;;;;;;4.93;4.20;;;;;;;;;;10141609;28;20503;-62
2022/08/29 02:26:05;;;;;;;4.93;4.53;;;;;;;;;;10138848;28;20084;-62
2022/08/29 02:30:59;;;;;;;7.68;5.35;;;;;;;;;;10147723;28;20136;-62
2022/08/29 02:35:53;;;;;;;6.43;5.93;;;;;;;;;;10137457;28;20045;-62
2022/08/29 02:40:49;;;;;;;9.32;6.47;;;;;;;;;;10129793;28;20128;-62
2022/08/29 02:45:44;;;;;;;6.43;5.82;;;;;;;;;;10132725;28;20048;-62
2022/08/29 02:50:53;;;;;;;6.85;6.30;;;;;;;;;;10139416;28;20052;-63
2022/08/29 02:55:50;;;;;;;7.13;6.53;;;;;;;;;;10146776;28;20055;-63
2022/08/29 03:00:51;;;;;;;7.35;5.85;;;;;;;;;;10138098;28;20052;-62
2022/08/29 03:05:44;;;;;;;8.75;7.90;;;;;;;;;;10136593;28;20053;-62
2022/08/29 03:10:38;;;;;;;8.25;7.55;;;;;;;;;;10143526;28;20049;-62
2022/08/29 03:15:32;;;;;;;10.00;7.00;;;;;;;;;;10140075;28;20061;-63
2022/08/29 03:20:26;;;;;;;8.75;7.95;;;;;;;;;;10148420;28;20052;-62
2022/08/29 03:25:23;;;;;;;7.78;7.18;;;;;;;;;;10132546;28;20087;-63
2022/08/29 03:30:17;;;;;;;8.75;7.80;;;;;;;;;;10122107;28;20599;-63
2022/08/29 03:35:12;;;;;;;8.88;8.13;;;;;;;;;;10132216;28;20049;-63
2022/08/29 03:40:07;;;;;;;10.57;7.70;;;;;;;;;;10144038;28;20063;-62
2022/08/29 03:45:05;;;;;;;8.57;7.43;;;;;;;;;;10135940;28;20507;-63
2022/08/29 03:49:59;;;;;;;8.55;7.75;;;;;;;;;;10141439;28;20044;-62
2022/08/29 03:54:53;;;;;;;8.18;5.93;;;;;;;;;;10137010;28;20090;-62
2022/08/29 03:59:49;;;;;;;6.78;5.97;;;;;;;;;;10137478;28;20442;-62
2022/08/29 04:10:03;;;;;;;8.32;7.57;;;;;;;;;;10121739;28;20091;-62
2022/08/29 04:14:57;;;;;;;6.38;5.82;;;;;;;;;;10115061;28;20060;-62
2022/08/29 04:19:51;;;;;;;8.25;6.15;;;;;;;;;;10125990;28;20044;-62
2022/08/29 04:24:46;;;;;;;15.85;8.30;;;;;;;;;;10120735;28;20072;-62
2022/08/29 04:29:40;;;;;;;7.75;6.57;;;;;;;;;;10123884;28;20052;-63
2022/08/29 04:34:34;;;;;;;6.63;6.03;;;;;;;;;;10124621;28;20048;-63
2022/08/29 04:39:28;;;;;;;10.43;5.43;;;;;;;;;;10137113;28;20053;-63
2022/08/29 04:44:23;;;;;;;8.07;4.82;;;;;;;;;;10145328;28;20056;-62
2022/08/29 04:49:16;;;;;;;7.85;4.72;;;;;;;;;;10142244;28;20047;-62
2022/08/29 04:54:09;;;;;;;5.07;4.10;;;;;;;;;;10153396;28;20063;-62
2022/08/29 04:59:03;;;;;;;5.88;4.00;;;;;;;;;;10148573;28;20056;-62
2022/08/29 05:03:57;;;;;;;5.47;3.80;;;;;;;;;;10142888;28;20492;-62
2022/08/29 05:08:52;;;;;;;6.75;3.50;;;;;;;;;;10138044;28;20053;-63
2022/08/29 05:13:53;;;;;;;4.05;3.20;;;;;;;;;;10141060;28;20087;-62
2022/08/29 05:18:51;;;;;;;4.00;3.10;;;;;;;;;;10129249;28;20045;-64
2022/08/29 05:23:45;;;;;;;4.60;3.33;;;;;;;;;;10132967;28;20041;-69
2022/08/29 05:28:38;;;;;;;5.18;3.03;;;;;;;;;;10150164;28;20053;-66
2022/08/29 05:33:32;;;;;;;8.82;3.67;;;;;;;;;;10130606;28;20361;-65
2022/08/29 05:38:26;;;;;;;6.45;3.67;;;;;;;;;;10149181;28;20059;-58
2022/08/29 05:43:20;;;;;;;5.43;3.65;;;;;;;;;;10146118;28;20052;-58
2022/08/29 05:48:16;;;;;;;6.47;3.97;;;;;;;;;;10138493;28;20052;-58
2022/08/29 05:53:12;;;;;;;4.68;3.53;;;;;;;;;;10140393;28;20389;-58
2022/08/29 05:58:09;;;;;;;10.27;3.95;;;;;;;;;;10151912;28;20118;-58
2022/08/29 06:03:03;;;;;;;6.13;5.53;;;;;;;;;;10145614;28;20078;-58
2022/08/29 06:07:57;;;;;;;8.88;5.78;;;;;;;;;;10143542;28;20059;-59
2022/08/29 06:12:51;;;;;;;10.88;6.78;;;;;;;;;;10146859;28;20106;-59
2022/08/29 06:17:45;;;;;;;7.00;6.30;;;;;;;;;;10137999;28;20127;-59
2022/08/29 06:22:38;;;;;;;13.73;7.18;;;;;;;;;;10134868;28;20114;-59
2022/08/29 06:27:32;;;;;;;9.40;6.05;;;;;;;;;;10133809;28;20060;-59
2022/08/29 06:32:26;;;;;;;11.65;8.07;;;;;;;;;;10137378;28;20049;-60
2022/08/29 06:37:21;;;;;;;8.07;6.00;;;;;;;;;;10132266;28;20494;-59
2022/08/29 06:42:17;;;;;;;9.68;6.28;;;;;;;;;;10147695;28;20063;-60
2022/08/29 06:47:14;;;;;;;7.35;5.32;;;;;;;;;;10134326;28;20049;-59
2022/08/29 06:52:08;;;;;;;9.55;5.50;;;;;;;;;;10137817;28;20045;-59
2022/08/29 06:57:02;;;;;;;7.30;4.80;;;;;;;;;;10138986;28;20048;-59
2022/08/29 07:01:55;;;;;;;8.40;5.38;;;;;;;;;;10148511;28;20075;-59
2022/08/29 07:06:50;;;;;;;6.70;4.70;;;;;;;;;;10142017;28;20057;-59
2022/08/29 07:11:44;;;;;;;11.02;4.63;;;;;;;;;;10131040;28;20464;-59
2022/08/29 07:16:39;;;;;;;12.95;4.47;;;;;;;;;;10129478;28;20072;-60
2022/08/29 07:21:33;;;;;;;4.50;3.83;;;;;;;;;;10147758;28;20076;-60
2022/08/29 07:26:51;;;;;;;9.20;5.00;;;;;;;;;;10126765;28;20055;-60
2022/08/29 07:31:46;;;;;;;10.13;4.78;;;;;;;;;;10139087;28;20052;-60
2022/08/29 07:36:43;;;;;;;5.57;3.70;;;;;;;;;;10149444;28;20045;-59
2022/08/29 07:41:38;;;;;;;6.15;3.55;;;;;;;;;;10140994;28;20056;-60
2022/08/29 07:46:33;;;;;;;4.97;3.90;;;;;;;;;;10128684;28;20181;-60
2022/08/29 07:51:27;;;;;;;5.40;3.42;;;;;;;;;;10143789;28;20519;-60
2022/08/29 07:56:25;;;;;;;3.75;3.00;;;;;;;;;;10147658;28;20561;-59
2022/08/29 08:01:20;;;;;;;3.92;2.70;;;;;;;;;;10143261;28;20048;-60
2022/08/29 08:06:14;;;;;;;7.15;2.65;;;;;;;;;;10137678;28;20048;-60
2022/08/29 08:11:10;;;;;;;6.20;2.90;;;;;;;;;;10131567;28;20076;-60
2022/08/29 08:16:09;;;;;;;9.30;4.38;;;;;;;;;;10129635;28;20048;-60
2022/08/29 08:21:02;;;;;;;4.35;3.22;;;;;;;;;;10148175;28;20079;-59
2022/08/29 08:25:56;;;;;;;5.05;3.60;;;;;;;;;;10144586;28;20507;-59
2022/08/29 08:30:49;;;;;;;4.03;2.65;;;;;;;;;;10139020;28;20411;-59
2022/08/29 08:36:05;;;;;;;6.75;2.60;;;;;;;;;;10135438;28;20054;-58
2022/08/29 08:41:22;;;;;;;3.20;2.35;;;;;;;;;;10119807;28;20053;-59
2022/08/29 08:46:27;;;;;;;3.78;2.22;;;;;;;;;;10142056;28;20064;-59
2022/08/29 08:51:25;;;;;;;2.58;1.83;;;;;;;;;;10143339;28;20052;-59
2022/08/29 08:56:29;;;;;;;3.28;2.63;;;;;;;;;;10139810;28;20403;-59
2022/08/29 09:01:37;;;;;;;7.50;2.55;;;;;;;;;;10137915;28;20083;-59
2022/08/29 09:06:55;;;;;;;4.05;2.63;;;;;;;;;;10135928;28;20044;-60
2022/08/29 09:12:19;;;;;;;4.72;2.10;;;;;;;;;;10138258;28;20044;-59
2022/08/29 09:17:35;;;;;;;3.60;2.65;;;;;;;;;;10138779;28;20098;-60
2022/08/29 09:22:30;;;;;;;7.67;2.43;;;;;;;;;;10138101;28;20491;-58
2022/08/29 09:27:28;;;;;;;3.88;1.73;;;;;;;;;;10141786;28;20368;-58
2022/08/29 09:32:22;;;;;;;4.45;2.42;;;;;;;;;;10133995;28;20040;-58
2022/08/29 09:37:33;;;;;;;3.15;2.03;;;;;;;;;;10134365;28;20040;-60
2022/08/29 09:42:35;;;;;;;3.25;1.92;;;;;;;;;;10141046;28;20787;-59
2022/08/29 09:47:31;;;;;;;4.47;2.17;;;;;;;;;;10147825;28;20048;-59
2022/08/29 09:52:26;;;;;;;6.05;3.08;;;;;;;;;;10145559;28;20057;-60
2022/08/29 09:57:23;;;;;;;6.43;2.95;;;;;;;;;;10148819;28;20041;-59
2022/08/29 10:02:20;;;;;;;4.25;2.13;;;;;;;;;;10148173;28;20052;-59
2022/08/29 10:07:19;;;;;;;4.38;2.25;;;;;;;;;;10146422;28;20047;-60
2022/08/29 10:12:16;;;;;;;7.50;2.55;;;;;;;;;;10141220;28;20047;-58
2022/08/29 10:23:04;;;;;;;5.72;2.53;;;;;;;;;;10136204;28;20095;-59
2022/08/29 10:28:02;;;;;;;7.90;3.08;;;;;;;;;;10131878;28;20045;-59
2022/08/29 10:33:08;;;;;;;4.68;2.20;;;;;;;;;;10144550;28;20060;-58
2022/08/29 10:38:11;;;;;;;;;;;;;;;;;;10147407;28;20087;-59
2022/08/29 10:43:23;;;;;;;9.75;3.15;;;;;;;;;;10145876;28;20286;-60
2022/08/29 10:48:30;;;;;;;14.60;2.53;;;;;;;;;;10140856;28;20037;-58
2022/08/29 10:53:30;;;;;;;5.32;2.85;;;;;;;;;;10146744;28;20098;-59
2022/08/29 10:58:42;;;;;;;5.55;2.65;;;;;;;;;;10145889;28;20100;-60
2022/08/29 11:03:57;;;;;;;4.28;2.70;;;;;;;;;;10142319;28;20055;-60
2022/08/29 11:08:56;;;;;;;4.53;2.57;;;;;;;;;;10143574;28;20052;-65
2022/08/29 11:13:53;;;;;;;4.53;1.88;;;;;;;;;;10129114;28;20063;-64
2022/08/29 11:18:51;;;;;;;4.07;2.47;;;;;;;;;;10126342;28;21460;-64
2022/08/29 11:23:47;;;;;;;3.40;2.58;;;;;;;;;;10137410;28;20454;-64
2022/08/29 11:28:56;;;;;;;3.33;2.00;;;;;;;;;;10140544;28;20044;-64
2022/08/29 11:33:54;;;;;;;2.88;2.40;;;;;;;;;;10143473;28;20075;-64
2022/08/29 11:39:14;;;;;;;3.35;2.03;;;;;;;;;;10122473;28;20072;-65
2022/08/29 11:44:22;;;;;;;3.55;1.73;;;;;;;;;;10118495;28;20053;-65
2022/08/29 11:49:29;;;;;;;6.00;2.00;;;;;;;;;;10130622;28;20068;-65
2022/08/29 11:54:24;;;;;;;3.25;1.60;;;;;;;;;;10133288;28;20075;-65
2022/08/29 11:59:48;;;;;;;5.78;1.90;;;;;;;;;;10143316;28;20045;-65
2022/08/29 12:04:52;;;;;;;6.15;1.65;;;;;;;;;;10123510;28;20498;-65
2022/08/29 12:09:52;;;;;;;1.85;1.42;;;;;;;;;;10121646;28;20056;-65
2022/08/29 12:14:51;;;;;;;2.67;1.60;;;;;;;;;;10121752;28;20483;-64
2022/08/29 12:20:03;;;;;;;4.20;1.70;;;;;;;;;;10134085;28;20098;-63
2022/08/29 12:24:58;;;;;;;1.95;1.63;;;;;;;;;;10131805;28;20373;-66
2022/08/29 12:29:53;;;;;;;4.50;1.27;;;;;;;;;;10127091;28;20036;-66
2022/08/29 12:34:59;;;;;;;6.00;1.60;;;;;;;;;;10143586;28;20102;-66
2022/08/29 12:39:59;;;;;;;3.90;1.52;;;;;;;;;;10141908;28;20048;-66
2022/08/29 12:45:04;;;;;;;1.85;1.52;;;;;;;;;;10141253;28;20495;-65
2022/08/29 12:50:01;;;;;;;4.30;1.65;;;;;;;;;;10143865;28;20040;-66
2022/08/29 12:54:56;;;;;;;3.25;1.33;;;;;;;;;;10145703;28;20545;-65
2022/08/29 12:59:52;;;;;;;3.38;2.05;;;;;;;;;;10137391;28;20066;-65
2022/08/29 13:04:45;;;;;;;;;;;;;;;;;;10134040;28;20396;-65
2022/08/29 13:09:44;;;;;;;2.05;0.98;;;;;;;;;;10140591;28;19921;-65
2022/08/29 13:14:48;;;;;;;3.35;1.23;;;;;;;;;;10157636;28;20044;-65
2022/08/29 13:20:20;;;;;;;3.92;1.40;;;;;;;;;;10131630;28;20049;-65
2022/08/29 13:25:16;;;;;;;2.50;1.48;;;;;;;;;;10134908;28;20057;-65
2022/08/29 13:30:42;;;;;;;1.98;1.30;;;;;;;;;;10149643;28;20484;-65
2022/08/29 13:35:42;;;;;;;1.20;1.10;;;;;;;;;;10143236;28;20514;-64
2022/08/29 13:40:46;;;;;;;1.65;1.48;;;;;;;;;;10137475;28;20095;-64
2022/08/29 13:45:40;;;;;;;3.05;1.42;;;;;;;;;;10148391;28;20053;-64
2022/08/29 13:50:34;;;;;;;5.57;1.60;;;;;;;;;;10144132;28;20058;-64
2022/08/29 13:55:28;;;;;;;2.58;1.35;;;;;;;;;;10144824;28;20048;-64
2022/08/29 14:00:23;;;;;;;4.85;1.40;;;;;;;;;;10150770;28;20438;-64
2022/08/29 14:05:27;;;;;;;2.65;1.45;;;;;;;;;;10143549;28;20044;-64
2022/08/29 14:10:21;;;;;;;1.85;1.60;;;;;;;;;;10144258;28;20056;-64
2022/08/29 14:15:16;;;;;;;3.35;1.45;;;;;;;;;;10145739;28;20079;-64
2022/08/29 14:20:11;;;;;;;6.82;1.60;;;;;;;;;;10149441;28;20044;-65
2022/08/29 14:25:08;;;;;;;5.07;1.50;;;;;;;;;;10149767;28;20534;-64
2022/08/29 14:30:05;;;;;;;6.38;1.58;;;;;;;;;;10150317;28;20048;-64
2022/08/29 14:34:59;;;;;;;4.22;1.73;;;;;;;;;;10143802;28;20052;-64
2022/08/29 14:39:56;;;;;;;3.85;1.77;;;;;;;;;;10144021;28;20048;-64
2022/08/29 14:44:51;;;;;;;4.10;1.98;;;;;;;;;;10149998;28;20094;-64
2022/08/29 14:49:44;;;;;;;4.20;1.67;;;;;;;;;;10146668;28;20105;-65
2022/08/29 14:54:39;;;;;;;3.00;1.70;;;;;;;;;;10143558;28;20115;-64
2022/08/29 14:59:32;;;;;;;3.03;1.90;;;;;;;;;;10131766;28;20056;-65
2022/08/29 15:04:26;;;;;;;5.25;2.20;;;;;;;;;;10131568;28;20056;-64
2022/08/29 15:09:31;;;;;;;5.13;1.70;;;;;;;;;;10147030;28;20539;-64
2022/08/29 15:14:24;;;;;;;4.40;1.67;;;;;;;;;;10140192;28;20079;-64
2022/08/29 15:19:20;;;;;;;5.82;1.88;;;;;;;;;;10136899;28;20522;-64
2022/08/29 15:24:33;;;;;;;1.98;1.77;;;;;;;;;;10137814;28;20043;-62
2022/08/29 15:29:28;;;;;;;7.35;2.88;;;;;;;;;;10138624;28;20097;-63
2022/08/29 15:34:24;;;;;;;4.45;2.00;;;;;;;;;;10134520;28;20047;-62
2022/08/29 15:39:18;;;;;;;7.97;1.92;;;;;;;;;;10114359;28;20110;-61
2022/08/29 15:44:11;;;;;;;2.35;1.98;;;;;;;;;;10128243;28;20450;-61
2022/08/29 15:49:07;;;;;;;4.82;1.83;;;;;;;;;;10125893;28;20053;-61
2022/08/29 15:54:02;;;;;;;;;;;;;;;;;;10132342;28;20053;-61
2022/08/29 15:58:55;;;;;;;2.80;2.13;;;;;;;;;;10133031;28;19920;-61
2022/08/29 16:03:49;;;;;;;4.28;2.10;;;;;;;;;;10120324;28;20440;-61
2022/08/29 16:08:43;;;;;;;5.57;2.58;;;;;;;;;;10132427;28;20045;-61
2022/08/29 16:13:38;;;;;;;5.18;2.15;;;;;;;;;;10127787;28;20048;-61
2022/08/29 16:18:34;;;;;;;6.10;2.73;;;;;;;;;;10126816;28;20087;-61
2022/08/29 16:23:28;;;;;;;4.43;2.17;;;;;;;;;;10125050;28;20299;-61
2022/08/29 16:28:22;;;;;;;4.85;2.08;;;;;;;;;;10129768;28;20137;-61
2022/08/29 16:33:16;;;;;;;4.03;2.20;;;;;;;;;;10134411;28;20044;-61
2022/08/29 16:38:11;;;;;;;3.55;2.30;;;;;;;;;;10149252;28;20072;-63
2022/08/29 16:43:05;;;;;;;3.63;1.83;;;;;;;;;;10134609;28;20048;-63
2022/08/29 16:48:00;;;;;;;3.05;2.10;;;;;;;;;;10142897;28;20048;-64
2022/08/29 16:53:01;;;;;;;4.03;1.98;;;;;;;;;;10142738;28;20068;-64
2022/08/29 17:03:07;;;;;;;4.45;2.08;;;;;;;;;;10149397;28;20079;-64
2022/08/29 17:17:48;;;;;;;2.75;2.22;;;;;;;;;;10152121;28;20060;-65
2022/08/29 17:22:42;;;;;;;3.28;2.22;;;;;;;;;;10150593;28;20102;-65
2022/08/29 17:27:36;;;;;;;6.65;2.05;;;;;;;;;;10138654;28;20080;-65
2022/08/29 17:32:29;;;;;;;6.38;2.50;;;;;;;;;;10154248;28;20131;-65
2022/08/29 17:37:23;;;;;;;7.55;2.30;;;;;;;;;;10135198;28;20422;-65
2022/08/29 17:42:16;;;;;;;6.15;2.75;;;;;;;;;;10149179;28;20110;-67
2022/08/29 17:47:12;;;;;;;2.92;2.60;;;;;;;;;;10132368;28;20051;-64
2022/08/29 17:52:05;;;;;;;4.45;2.20;;;;;;;;;;10151906;28;20463;-64
2022/08/29 17:57:00;;;;;;;4.95;2.65;;;;;;;;;;10141908;28;20099;-67
2022/08/29 18:01:56;;;;;;;7.22;2.95;;;;;;;;;;10137884;28;20048;-67
2022/08/29 18:06:50;;;;;;;5.22;2.55;;;;;;;;;;10133769;28;20048;-64
2022/08/29 18:11:46;;;;;;;4.72;2.80;;;;;;;;;;10133404;28;20048;-64
2022/08/29 18:16:40;;;;;;;2.70;2.45;;;;;;;;;;10133855;28;20087;-63
2022/08/29 18:21:35;;;;;;;5.93;2.78;;;;;;;;;;10147799;28;20053;-66
2022/08/29 18:26:30;;;;;;;11.07;2.67;;;;;;;;;;10127606;28;20597;-65
2022/08/29 18:31:24;;;;;;;5.43;2.78;;;;;;;;;;10139272;28;20337;-64
2022/08/29 18:36:18;;;;;;;5.28;3.20;;;;;;;;;;10128548;28;20055;-64
2022/08/29 18:41:12;;;;;;;4.78;2.40;;;;;;;;;;10145201;28;20037;-65
2022/08/29 18:46:08;;;;;;;4.35;2.90;;;;;;;;;;10118800;28;20111;-64
2022/08/29 18:51:01;;;;;;;7.40;2.35;;;;;;;;;;10134644;28;20063;-64
2022/08/29 18:55:55;;;;;;;4.63;3.45;;;;;;;;;;10135706;28;20107;-66
2022/08/29 19:00:50;;;;;;;9.90;3.17;;;;;;;;;;10131738;28;20059;-67
2022/08/29 19:05:48;;;;;;;5.72;3.47;;;;;;;;;;10137562;28;20454;-66
2022/08/29 19:10:44;;;;;;;8.32;3.42;;;;;;;;;;10130675;28;20131;-68
2022/08/29 19:15:38;;;;;;;5.82;3.63;;;;;;;;;;10140315;28;20041;-67
2022/08/29 19:25:46;;;;;;;8.43;3.42;;;;;;;;;;10146947;28;20514;-64
2022/08/29 19:30:41;;;;;;;4.60;3.75;;;;;;;;;;10140537;28;20072;-66
2022/08/29 19:35:39;;;;;;;5.93;3.35;;;;;;;;;;10135123;28;20055;-67
2022/08/29 19:40:34;;;;;;;4.38;3.92;;;;;;;;;;10142413;28;20041;-64
2022/08/29 19:45:31;;;;;;;4.80;3.38;;;;;;;;;;10136105;28;20041;-64
2022/08/29 19:50:24;;;;;;;4.10;3.20;;;;;;;;;;10140561;28;20063;-64
2022/08/29 19:55:20;;;;;;;5.55;2.78;;;;;;;;;;10128214;28;20131;-63
2022/08/29 20:00:17;;;;;;;3.70;3.10;;;;;;;;;;10123946;28;20052;-62
2022/08/29 20:05:14;;;;;;;2.63;2.42;;;;;;;;;;10126709;28;20097;-62
2022/08/29 20:10:09;;;;;;;3.10;2.80;;;;;;;;;;10133334;28;20091;-62
2022/08/29 20:15:09;;;;;;;4.10;2.60;;;;;;;;;;10135598;28;20510;-62
2022/08/29 20:20:06;;;;;;;3.28;2.80;;;;;;;;;;10135378;28;20072;-62
2022/08/29 20:25:01;;;;;;;6.85;2.40;;;;;;;;;;10138415;28;20102;-64
2022/08/29 20:29:55;;;;;;;5.30;2.63;;;;;;;;;;10145492;28;20136;-63
2022/08/29 20:34:49;;;;;;;3.55;2.83;;;;;;;;;;10140528;28;20048;-62
2022/08/29 20:39:48;;;;;;;4.22;3.00;;;;;;;;;;10135073;28;20045;-65
2022/08/29 20:44:42;;;;;;;3.63;2.50;;;;;;;;;;10136876;28;20459;-61
2022/08/29 20:49:36;;;;;;;5.40;3.25;;;;;;;;;;10129676;28;20049;-63
2022/08/29 20:54:29;;;;;;;4.95;2.75;;;;;;;;;;10123821;28;20454;-64
2022/08/29 20:59:23;;;;;;;7.55;2.95;;;;;;;;;;10142189;28;20075;-65
2022/08/29 21:09:30;;;;;;;2.88;2.05;;;;;;;;;;10137205;28;20049;-64
2022/08/29 21:14:28;;;;;;;2.40;2.20;;;;;;;;;;10139246;28;20079;-63
2022/08/29 21:19:25;;;;;;;6.97;2.60;;;;;;;;;;10138940;28;20079;-61
2022/08/29 21:24:19;;;;;;;7.25;2.47;;;;;;;;;;10135957;28;20040;-65
2022/08/29 21:29:13;;;;;;;2.45;2.20;;;;;;;;;;10130194;28;20101;-67
2022/08/29 21:34:10;;;;;;;4.63;2.33;;;;;;;;;;10141951;28;20044;-68
2022/08/29 21:39:06;;;;;;;6.22;2.90;;;;;;;;;;10137045;28;20047;-63
2022/08/29 21:43:59;;;;;;;3.35;2.38;;;;;;;;;;10138359;28;20399;-66
2022/08/29 21:49:15;;;;;;;2.50;2.30;;;;;;;;;;10141343;28;20053;-67
2022/08/29 21:54:10;;;;;;;2.70;2.50;;;;;;;;;;10147644;28;20060;-67
2022/08/29 21:59:06;;;;;;;2.50;2.30;;;;;;;;;;10127941;28;20056;-63
2022/08/29 22:04:01;;;;;;;3.58;2.60;;;;;;;;;;10130268;28;20044;-62
2022/08/29 22:08:56;;;;;;;6.95;2.67;;;;;;;;;;10144475;28;20654;-67
2022/08/29 22:13:51;;;;;;;4.05;2.40;;;;;;;;;;10142673;28;20064;-64
2022/08/29 22:18:47;;;;;;;10.60;3.08;;;;;;;;;;10134346;28;20489;-65
2022/08/29 22:23:43;;;;;;;2.72;2.30;;;;;;;;;;10131134;28;20415;-62
2022/08/29 22:28:37;;;;;;;2.33;2.13;;;;;;;;;;10129233;28;20063;-63
2022/08/29 22:33:34;;;;;;;4.70;2.72;;;;;;;;;;10124135;28;20219;-63
2022/08/29 22:38:30;;;;;;;2.45;2.25;;;;;;;;;;10118194;28;20076;-62
2022/08/29 22:43:24;;;;;;;3.67;2.72;;;;;;;;;;10122446;28;20103;-63
2022/08/29 22:48:18;;;;;;;6.35;3.13;;;;;;;;;;10119998;28;20079;-64
2022/08/29 22:53:12;;;;;;;3.25;2.95;;;;;;;;;;10136325;28;20041;-62
2022/08/29 22:58:06;;;;;;;6.15;3.35;;;;;;;;;;10127185;28;20084;-63
2022/08/29 23:03:02;;;;;;;4.85;3.58;;;;;;;;;;10123505;28;20053;-67
2022/08/29 23:07:55;;;;;;;4.30;3.28;;;;;;;;;;10131074;28;20127;-65
2022/08/29 23:12:50;;;;;;;6.00;3.38;;;;;;;;;;10131124;28;20045;-65
2022/08/29 23:17:43;;;;;;;4.80;3.08;;;;;;;;;;10136130;28;20057;-65
2022/08/29 23:22:38;;;;;;;7.43;3.45;;;;;;;;;;10134096;28;20051;-65
2022/08/29 23:27:35;;;;;;;4.25;3.50;;;;;;;;;;10137648;28;20473;-65
2022/08/29 23:32:29;;;;;;;3.15;2.85;;;;;;;;;;10121780;28;20500;-65
2022/08/29 23:37:24;;;;;;;5.97;3.45;;;;;;;;;;10123212;28;20057;-65
2022/08/29 23:42:18;;;;;;;3.85;3.20;;;;;;;;;;10142360;28;20397;-64
2022/08/29 23:47:13;;;;;;;8.68;3.78;;;;;;;;;;10139272;28;20049;-64
2022/08/29 23:52:07;;;;;;;6.35;3.10;;;;;;;;;;10140788;28;20063;-64
2022/08/29 23:57:01;;;;;;;3.03;2.75;;;;;;;;;;10126217;28;20056;-66
